Hillsdale, Illinois
Current Conditions -  °F | °C
As of 4:35 AM on Monday 22 Dec 2014 (Local Time) from KCWI Reporting Station
Overcast Overcast  
Wind Chill: 26°   Ceiling: 3600
Heat Index: 36°   Visibility: 6mi
Dew Point: 30°   Wind: 15mph
Humidity: 81%   Direction: 140°SE
Pressure: 29.87"   Gusts: NA
Location:  41.61°N, 90.17°W
Report Text: KCWI 221035Z AUTO 14013KT 6SM OVC036 02/M01 A2987 RMK AO1
Loading
Personal Weather Stations






























Interactive Weather Map New forecast layout! Learn more

10-Day Weather Forecast

Advertisements
Track Severe Weather on mobile